sensor_id;sensor_type;location;lat;lon;timestamp;temperature;humidity
52879;DHT22;38747;53.140;6.498;2023-02-28T00:00:25;3.30;99.90
52879;DHT22;38747;53.140;6.498;2023-02-28T00:02:51;3.30;99.90
52879;DHT22;38747;53.140;6.498;2023-02-28T00:05:20;3.30;99.90
52879;DHT22;38747;53.140;6.498;2023-02-28T00:07:46;3.30;99.90
52879;DHT22;38747;53.140;6.498;2023-02-28T00:10:18;3.30;99.90
52879;DHT22;38747;53.140;6.498;2023-02-28T00:12:47;3.30;99.90
52879;DHT22;38747;53.140;6.498;2023-02-28T00:15:12;3.30;99.90
52879;DHT22;38747;53.140;6.498;2023-02-28T00:17:38;3.30;99.90
52879;DHT22;38747;53.140;6.498;2023-02-28T00:20:05;3.30;99.90
52879;DHT22;38747;53.140;6.498;2023-02-28T00:22:36;3.30;99.90
52879;DHT22;38747;53.140;6.498;2023-02-28T00:25:03;3.30;99.90
52879;DHT22;38747;53.140;6.498;2023-02-28T00:27:29;3.30;99.90
52879;DHT22;38747;53.140;6.498;2023-02-28T00:29:55;3.30;99.90
52879;DHT22;38747;53.140;6.498;2023-02-28T00:32:21;3.40;99.90
52879;DHT22;38747;53.140;6.498;2023-02-28T00:34:47;3.30;99.90
52879;DHT22;38747;53.140;6.498;2023-02-28T00:37:12;3.30;99.90
52879;DHT22;38747;53.140;6.498;2023-02-28T00:39:39;3.30;99.90
52879;DHT22;38747;53.140;6.498;2023-02-28T00:42:06;3.30;99.90
52879;DHT22;38747;53.140;6.498;2023-02-28T00:44:32;3.20;99.90
52879;DHT22;38747;53.140;6.498;2023-02-28T00:46:58;3.20;99.90
52879;DHT22;38747;53.140;6.498;2023-02-28T00:49:24;3.20;99.90
52879;DHT22;38747;53.140;6.498;2023-02-28T00:51:51;3.20;99.90
52879;DHT22;38747;53.140;6.498;2023-02-28T00:54:17;3.20;99.90
52879;DHT22;38747;53.140;6.498;2023-02-28T00:56:43;3.20;99.90
52879;DHT22;38747;53.140;6.498;2023-02-28T00:59:08;3.20;99.90
52879;DHT22;38747;53.140;6.498;2023-02-28T01:01:34;3.20;99.90
52879;DHT22;38747;53.140;6.498;2023-02-28T01:04:00;3.20;99.90
52879;DHT22;38747;53.140;6.498;2023-02-28T01:06:26;3.20;99.90
52879;DHT22;38747;53.140;6.498;2023-02-28T01:08:52;3.20;99.90
52879;DHT22;38747;53.140;6.498;2023-02-28T01:11:18;3.20;99.90
52879;DHT22;38747;53.140;6.498;2023-02-28T01:13:45;3.30;99.90
52879;DHT22;38747;53.140;6.498;2023-02-28T01:16:11;3.30;99.90
52879;DHT22;38747;53.140;6.498;2023-02-28T01:18:37;3.30;99.90
52879;DHT22;38747;53.140;6.498;2023-02-28T01:21:04;3.30;99.90
52879;DHT22;38747;53.140;6.498;2023-02-28T01:23:30;3.30;99.90
52879;DHT22;38747;53.140;6.498;2023-02-28T01:25:55;3.30;99.90
52879;DHT22;38747;53.140;6.498;2023-02-28T01:28:21;3.30;99.90
52879;DHT22;38747;53.140;6.498;2023-02-28T01:30:51;3.30;99.90
52879;DHT22;38747;53.140;6.498;2023-02-28T01:33:16;3.30;99.90
52879;DHT22;38747;53.140;6.498;2023-02-28T01:35:42;3.30;99.90
52879;DHT22;38747;53.140;6.498;2023-02-28T01:38:07;3.30;99.90
52879;DHT22;38747;53.140;6.498;2023-02-28T01:40:33;3.30;99.90
52879;DHT22;38747;53.140;6.498;2023-02-28T01:42:59;3.30;99.90
52879;DHT22;38747;53.140;6.498;2023-02-28T01:45:31;3.30;99.90
52879;DHT22;38747;53.140;6.498;2023-02-28T01:48:03;3.30;99.90
52879;DHT22;38747;53.140;6.498;2023-02-28T01:50:33;3.40;99.90
52879;DHT22;38747;53.140;6.498;2023-02-28T01:53:03;3.40;99.90
52879;DHT22;38747;53.140;6.498;2023-02-28T01:55:30;3.40;99.90
52879;DHT22;38747;53.140;6.498;2023-02-28T01:57:59;3.40;99.90
52879;DHT22;38747;53.140;6.498;2023-02-28T02:00:27;3.40;99.90
52879;DHT22;38747;53.140;6.498;2023-02-28T02:02:57;3.40;99.90
52879;DHT22;38747;53.140;6.498;2023-02-28T02:05:28;3.40;99.90
52879;DHT22;38747;53.140;6.498;2023-02-28T02:08:08;3.40;99.90
52879;DHT22;38747;53.140;6.498;2023-02-28T02:10:39;3.40;99.90
52879;DHT22;38747;53.140;6.498;2023-02-28T02:18:52;3.40;99.90
52879;DHT22;38747;53.140;6.498;2023-02-28T02:30:02;3.50;99.90
52879;DHT22;38747;53.140;6.498;2023-02-28T02:41:13;3.50;99.90
52879;DHT22;38747;53.140;6.498;2023-02-28T02:43:48;3.50;99.90
52879;DHT22;38747;53.140;6.498;2023-02-28T02:46:21;3.50;99.90
52879;DHT22;38747;53.140;6.498;2023-02-28T02:48:48;3.50;99.90
52879;DHT22;38747;53.140;6.498;2023-02-28T02:51:17;3.50;99.90
52879;DHT22;38747;53.140;6.498;2023-02-28T02:53:55;3.50;99.90
52879;DHT22;38747;53.140;6.498;2023-02-28T02:56:27;3.50;99.90
52879;DHT22;38747;53.140;6.498;2023-02-28T02:58:55;3.50;99.90
52879;DHT22;38747;53.140;6.498;2023-02-28T03:01:24;3.60;99.90
52879;DHT22;38747;53.140;6.498;2023-02-28T03:03:56;3.50;99.90
52879;DHT22;38747;53.140;6.498;2023-02-28T03:06:23;3.60;99.90
52879;DHT22;38747;53.140;6.498;2023-02-28T03:08:48;3.60;99.90
52879;DHT22;38747;53.140;6.498;2023-02-28T03:11:15;3.60;99.90
52879;DHT22;38747;53.140;6.498;2023-02-28T03:16:33;3.50;99.90
52879;DHT22;38747;53.140;6.498;2023-02-28T03:25:08;3.40;99.90
52879;DHT22;38747;53.140;6.498;2023-02-28T03:28:02;3.40;99.90
52879;DHT22;38747;53.140;6.498;2023-02-28T03:30:35;3.30;99.90
52879;DHT22;38747;53.140;6.498;2023-02-28T03:33:03;3.40;99.90
52879;DHT22;38747;53.140;6.498;2023-02-28T03:35:35;3.40;99.90
52879;DHT22;38747;53.140;6.498;2023-02-28T03:38:33;3.30;99.90
52879;DHT22;38747;53.140;6.498;2023-02-28T03:41:09;3.30;99.90
52879;DHT22;38747;53.140;6.498;2023-02-28T03:43:41;3.30;99.90
52879;DHT22;38747;53.140;6.498;2023-02-28T03:46:12;3.30;99.90
52879;DHT22;38747;53.140;6.498;2023-02-28T03:48:48;3.20;99.90
52879;DHT22;38747;53.140;6.498;2023-02-28T03:51:17;3.20;99.90
52879;DHT22;38747;53.140;6.498;2023-02-28T03:53:59;3.30;99.90
52879;DHT22;38747;53.140;6.498;2023-02-28T03:56:32;3.30;99.90
52879;DHT22;38747;53.140;6.498;2023-02-28T03:59:19;3.30;99.90
52879;DHT22;38747;53.140;6.498;2023-02-28T04:01:47;3.30;99.90
52879;DHT22;38747;53.140;6.498;2023-02-28T04:04:15;3.20;99.90
52879;DHT22;38747;53.140;6.498;2023-02-28T04:06:41;3.30;99.90
52879;DHT22;38747;53.140;6.498;2023-02-28T04:09:11;3.20;99.90
52879;DHT22;38747;53.140;6.498;2023-02-28T04:11:39;3.20;99.90
52879;DHT22;38747;53.140;6.498;2023-02-28T04:14:07;3.20;99.90
52879;DHT22;38747;53.140;6.498;2023-02-28T04:16:34;3.10;99.90
52879;DHT22;38747;53.140;6.498;2023-02-28T04:19:00;3.20;99.90
52879;DHT22;38747;53.140;6.498;2023-02-28T04:23:56;3.20;99.90
52879;DHT22;38747;53.140;6.498;2023-02-28T04:26:32;3.10;99.90
52879;DHT22;38747;53.140;6.498;2023-02-28T04:28:59;3.10;99.90
52879;DHT22;38747;53.140;6.498;2023-02-28T04:31:25;3.00;99.90
52879;DHT22;38747;53.140;6.498;2023-02-28T04:33:51;3.00;99.90
52879;DHT22;38747;53.140;6.498;2023-02-28T04:36:16;2.90;99.90
52879;DHT22;38747;53.140;6.498;2023-02-28T04:38:46;2.90;99.90
52879;DHT22;38747;53.140;6.498;2023-02-28T04:41:15;2.90;99.90
52879;DHT22;38747;53.140;6.498;2023-02-28T04:43:40;2.90;99.90
52879;DHT22;38747;53.140;6.498;2023-02-28T04:46:06;2.80;99.90
52879;DHT22;38747;53.140;6.498;2023-02-28T04:48:35;2.80;99.90
52879;DHT22;38747;53.140;6.498;2023-02-28T04:51:02;2.80;99.90
52879;DHT22;38747;53.140;6.498;2023-02-28T04:53:29;2.90;99.90
52879;DHT22;38747;53.140;6.498;2023-02-28T04:55:55;2.90;99.90
52879;DHT22;38747;53.140;6.498;2023-02-28T04:58:21;2.80;99.90
52879;DHT22;38747;53.140;6.498;2023-02-28T05:00:49;2.80;99.90
52879;DHT22;38747;53.140;6.498;2023-02-28T05:03:15;2.70;99.90
52879;DHT22;38747;53.140;6.498;2023-02-28T05:05:40;2.70;99.90
52879;DHT22;38747;53.140;6.498;2023-02-28T05:08:06;2.70;99.90
52879;DHT22;38747;53.140;6.498;2023-02-28T05:10:32;2.70;99.90
52879;DHT22;38747;53.140;6.498;2023-02-28T05:12:58;2.70;99.90
52879;DHT22;38747;53.140;6.498;2023-02-28T05:15:24;2.70;99.90
52879;DHT22;38747;53.140;6.498;2023-02-28T05:17:50;2.70;99.90
52879;DHT22;38747;53.140;6.498;2023-02-28T05:20:15;2.70;99.90
52879;DHT22;38747;53.140;6.498;2023-02-28T05:22:42;2.70;99.90
52879;DHT22;38747;53.140;6.498;2023-02-28T05:25:12;2.70;99.90
52879;DHT22;38747;53.140;6.498;2023-02-28T05:27:38;2.60;99.90
52879;DHT22;38747;53.140;6.498;2023-02-28T05:30:05;2.60;99.90
52879;DHT22;38747;53.140;6.498;2023-02-28T05:32:31;2.60;99.90
52879;DHT22;38747;53.140;6.498;2023-02-28T05:34:57;2.60;99.90
52879;DHT22;38747;53.140;6.498;2023-02-28T05:37:22;2.50;99.90
52879;DHT22;38747;53.140;6.498;2023-02-28T05:39:48;2.60;99.90
52879;DHT22;38747;53.140;6.498;2023-02-28T05:42:13;2.50;99.90
52879;DHT22;38747;53.140;6.498;2023-02-28T05:44:39;2.50;99.90
52879;DHT22;38747;53.140;6.498;2023-02-28T05:47:04;2.50;99.90
52879;DHT22;38747;53.140;6.498;2023-02-28T05:49:30;2.50;99.90
52879;DHT22;38747;53.140;6.498;2023-02-28T05:51:56;2.50;99.90
52879;DHT22;38747;53.140;6.498;2023-02-28T05:54:21;2.60;99.90
52879;DHT22;38747;53.140;6.498;2023-02-28T05:56:49;2.50;99.90
52879;DHT22;38747;53.140;6.498;2023-02-28T05:59:15;2.50;99.90
52879;DHT22;38747;53.140;6.498;2023-02-28T06:01:42;2.50;99.90
52879;DHT22;38747;53.140;6.498;2023-02-28T06:04:15;2.50;99.90
52879;DHT22;38747;53.140;6.498;2023-02-28T06:06:44;2.50;99.90
52879;DHT22;38747;53.140;6.498;2023-02-28T06:09:10;2.50;99.90
52879;DHT22;38747;53.140;6.498;2023-02-28T06:11:36;2.50;99.90
52879;DHT22;38747;53.140;6.498;2023-02-28T06:14:04;2.50;99.90
52879;DHT22;38747;53.140;6.498;2023-02-28T06:16:31;2.50;99.90
52879;DHT22;38747;53.140;6.498;2023-02-28T06:18:58;2.50;99.90
52879;DHT22;38747;53.140;6.498;2023-02-28T06:21:24;2.50;99.90
52879;DHT22;38747;53.140;6.498;2023-02-28T06:23:50;2.50;99.90
52879;DHT22;38747;53.140;6.498;2023-02-28T06:26:16;2.50;99.90
52879;DHT22;38747;53.140;6.498;2023-02-28T06:28:42;2.40;99.90
52879;DHT22;38747;53.140;6.498;2023-02-28T06:31:09;2.40;99.90
52879;DHT22;38747;53.140;6.498;2023-02-28T06:33:36;2.40;99.90
52879;DHT22;38747;53.140;6.498;2023-02-28T06:36:02;2.30;99.90
52879;DHT22;38747;53.140;6.498;2023-02-28T06:38:28;2.20;99.90
52879;DHT22;38747;53.140;6.498;2023-02-28T06:40:55;2.30;99.90
52879;DHT22;38747;53.140;6.498;2023-02-28T06:43:23;2.20;99.90
52879;DHT22;38747;53.140;6.498;2023-02-28T06:45:49;2.20;99.90
52879;DHT22;38747;53.140;6.498;2023-02-28T06:48:15;2.20;99.90
52879;DHT22;38747;53.140;6.498;2023-02-28T06:50:40;2.20;99.90
52879;DHT22;38747;53.140;6.498;2023-02-28T06:53:06;2.20;99.90
52879;DHT22;38747;53.140;6.498;2023-02-28T06:55:31;2.10;99.90
52879;DHT22;38747;53.140;6.498;2023-02-28T06:57:58;2.10;99.90
52879;DHT22;38747;53.140;6.498;2023-02-28T07:00:23;2.10;99.90
52879;DHT22;38747;53.140;6.498;2023-02-28T07:02:50;2.10;99.90
52879;DHT22;38747;53.140;6.498;2023-02-28T07:05:16;2.10;99.90
52879;DHT22;38747;53.140;6.498;2023-02-28T07:07:41;2.20;99.90
52879;DHT22;38747;53.140;6.498;2023-02-28T07:10:13;2.20;99.90
52879;DHT22;38747;53.140;6.498;2023-02-28T07:12:41;2.20;99.90
52879;DHT22;38747;53.140;6.498;2023-02-28T07:15:07;2.20;99.90
52879;DHT22;38747;53.140;6.498;2023-02-28T07:17:32;2.20;99.90
52879;DHT22;38747;53.140;6.498;2023-02-28T07:19:58;2.20;99.90
52879;DHT22;38747;53.140;6.498;2023-02-28T07:22:24;2.20;99.90
52879;DHT22;38747;53.140;6.498;2023-02-28T07:24:50;2.20;99.90
52879;DHT22;38747;53.140;6.498;2023-02-28T07:27:15;2.20;99.90
52879;DHT22;38747;53.140;6.498;2023-02-28T07:29:49;2.20;99.90
52879;DHT22;38747;53.140;6.498;2023-02-28T07:32:15;2.30;99.90
52879;DHT22;38747;53.140;6.498;2023-02-28T07:34:41;2.30;99.90
52879;DHT22;38747;53.140;6.498;2023-02-28T07:37:06;2.30;99.90
52879;DHT22;38747;53.140;6.498;2023-02-28T07:39:32;2.30;99.90
52879;DHT22;38747;53.140;6.498;2023-02-28T07:41:57;2.30;99.90
52879;DHT22;38747;53.140;6.498;2023-02-28T07:44:25;2.30;99.90
52879;DHT22;38747;53.140;6.498;2023-02-28T07:46:51;2.40;99.90
52879;DHT22;38747;53.140;6.498;2023-02-28T07:49:18;2.40;99.90
52879;DHT22;38747;53.140;6.498;2023-02-28T07:51:43;2.40;99.90
52879;DHT22;38747;53.140;6.498;2023-02-28T07:54:09;2.40;99.90
52879;DHT22;38747;53.140;6.498;2023-02-28T07:56:35;2.40;99.90
52879;DHT22;38747;53.140;6.498;2023-02-28T07:59:01;2.50;99.90
52879;DHT22;38747;53.140;6.498;2023-02-28T08:01:27;2.50;99.90
52879;DHT22;38747;53.140;6.498;2023-02-28T08:03:53;2.50;99.90
52879;DHT22;38747;53.140;6.498;2023-02-28T08:06:22;2.50;99.90
52879;DHT22;38747;53.140;6.498;2023-02-28T08:08:48;2.50;99.90
52879;DHT22;38747;53.140;6.498;2023-02-28T08:11:15;2.60;99.90
52879;DHT22;38747;53.140;6.498;2023-02-28T08:13:41;2.60;99.90
52879;DHT22;38747;53.140;6.498;2023-02-28T08:16:09;2.70;99.90
52879;DHT22;38747;53.140;6.498;2023-02-28T08:18:35;2.60;99.90
52879;DHT22;38747;53.140;6.498;2023-02-28T08:21:08;2.70;99.90
52879;DHT22;38747;53.140;6.498;2023-02-28T08:23:34;2.80;99.90
52879;DHT22;38747;53.140;6.498;2023-02-28T08:26:00;2.90;99.90
52879;DHT22;38747;53.140;6.498;2023-02-28T08:28:26;2.90;99.90
52879;DHT22;38747;53.140;6.498;2023-02-28T08:30:51;3.00;99.90
52879;DHT22;38747;53.140;6.498;2023-02-28T08:33:17;3.00;99.90
52879;DHT22;38747;53.140;6.498;2023-02-28T08:35:42;3.10;99.90
52879;DHT22;38747;53.140;6.498;2023-02-28T08:38:08;3.10;99.90
52879;DHT22;38747;53.140;6.498;2023-02-28T08:40:33;3.10;99.90
52879;DHT22;38747;53.140;6.498;2023-02-28T08:42:59;3.10;99.90
52879;DHT22;38747;53.140;6.498;2023-02-28T08:45:25;3.20;99.90
52879;DHT22;38747;53.140;6.498;2023-02-28T08:47:51;3.20;99.90
52879;DHT22;38747;53.140;6.498;2023-02-28T08:50:18;3.20;99.90
52879;DHT22;38747;53.140;6.498;2023-02-28T08:52:43;3.20;99.90
52879;DHT22;38747;53.140;6.498;2023-02-28T08:55:10;3.30;99.90
52879;DHT22;38747;53.140;6.498;2023-02-28T08:57:35;3.30;99.90
52879;DHT22;38747;53.140;6.498;2023-02-28T09:00:02;3.30;99.90
52879;DHT22;38747;53.140;6.498;2023-02-28T09:02:31;3.40;99.90
52879;DHT22;38747;53.140;6.498;2023-02-28T09:05:00;3.50;99.90
52879;DHT22;38747;53.140;6.498;2023-02-28T09:07:25;3.60;99.90
52879;DHT22;38747;53.140;6.498;2023-02-28T09:09:51;3.60;99.90
52879;DHT22;38747;53.140;6.498;2023-02-28T09:12:24;3.70;99.90
52879;DHT22;38747;53.140;6.498;2023-02-28T09:14:51;3.70;99.90
52879;DHT22;38747;53.140;6.498;2023-02-28T09:17:17;3.80;99.90
52879;DHT22;38747;53.140;6.498;2023-02-28T09:19:43;3.90;99.90
52879;DHT22;38747;53.140;6.498;2023-02-28T09:22:10;4.10;99.90
52879;DHT22;38747;53.140;6.498;2023-02-28T09:24:37;4.10;99.90
52879;DHT22;38747;53.140;6.498;2023-02-28T09:27:03;4.10;99.90
52879;DHT22;38747;53.140;6.498;2023-02-28T09:29:29;4.20;99.90
52879;DHT22;38747;53.140;6.498;2023-02-28T09:31:55;4.20;99.90
52879;DHT22;38747;53.140;6.498;2023-02-28T09:34:24;4.40;99.90
52879;DHT22;38747;53.140;6.498;2023-02-28T09:36:50;4.50;99.90
52879;DHT22;38747;53.140;6.498;2023-02-28T09:39:20;4.50;99.90
52879;DHT22;38747;53.140;6.498;2023-02-28T09:41:49;4.50;99.90
52879;DHT22;38747;53.140;6.498;2023-02-28T09:44:33;4.50;99.90
52879;DHT22;38747;53.140;6.498;2023-02-28T09:47:08;4.60;99.90
52879;DHT22;38747;53.140;6.498;2023-02-28T09:49:39;4.60;99.90
52879;DHT22;38747;53.140;6.498;2023-02-28T09:52:12;4.60;99.90
52879;DHT22;38747;53.140;6.498;2023-02-28T09:54:39;4.60;99.90
52879;DHT22;38747;53.140;6.498;2023-02-28T09:57:32;4.60;99.90
52879;DHT22;38747;53.140;6.498;2023-02-28T10:05:10;4.70;99.90
52879;DHT22;38747;53.140;6.498;2023-02-28T10:08:37;4.80;99.90
52879;DHT22;38747;53.140;6.498;2023-02-28T10:10:42;4.80;99.90
52879;DHT22;38747;53.140;6.498;2023-02-28T10:16:05;4.80;99.90
52879;DHT22;38747;53.140;6.498;2023-02-28T10:18:43;4.80;99.90
52879;DHT22;38747;53.140;6.498;2023-02-28T10:21:42;4.90;99.90
52879;DHT22;38747;53.140;6.498;2023-02-28T10:24:28;4.90;99.90
52879;DHT22;38747;53.140;6.498;2023-02-28T10:27:00;4.90;99.90
52879;DHT22;38747;53.140;6.498;2023-02-28T10:29:28;5.00;99.90
52879;DHT22;38747;53.140;6.498;2023-02-28T10:32:02;5.00;99.90
52879;DHT22;38747;53.140;6.498;2023-02-28T10:34:29;5.00;99.90
52879;DHT22;38747;53.140;6.498;2023-02-28T10:36:55;5.00;99.90
52879;DHT22;38747;53.140;6.498;2023-02-28T10:39:40;5.10;99.90
52879;DHT22;38747;53.140;6.498;2023-02-28T10:42:22;5.10;99.90
52879;DHT22;38747;53.140;6.498;2023-02-28T10:47:34;5.20;99.90
52879;DHT22;38747;53.140;6.498;2023-02-28T10:50:02;5.20;99.90
52879;DHT22;38747;53.140;6.498;2023-02-28T10:52:38;5.30;99.90
52879;DHT22;38747;53.140;6.498;2023-02-28T10:55:22;5.30;99.90
52879;DHT22;38747;53.140;6.498;2023-02-28T10:57:49;5.30;99.90
52879;DHT22;38747;53.140;6.498;2023-02-28T11:00:24;5.40;99.90
52879;DHT22;38747;53.140;6.498;2023-02-28T11:02:51;5.50;99.90
52879;DHT22;38747;53.140;6.498;2023-02-28T11:05:28;5.50;99.90
52879;DHT22;38747;53.140;6.498;2023-02-28T11:08:10;5.50;99.90
52879;DHT22;38747;53.140;6.498;2023-02-28T11:10:38;5.50;99.90
52879;DHT22;38747;53.140;6.498;2023-02-28T11:13:05;5.50;99.90
52879;DHT22;38747;53.140;6.498;2023-02-28T11:15:33;5.50;99.90
52879;DHT22;38747;53.140;6.498;2023-02-28T11:20:32;5.60;99.90
52879;DHT22;38747;53.140;6.498;2023-02-28T11:23:00;5.70;99.90
52879;DHT22;38747;53.140;6.498;2023-02-28T11:25:32;5.70;99.90
52879;DHT22;38747;53.140;6.498;2023-02-28T11:28:04;5.70;99.90
52879;DHT22;38747;53.140;6.498;2023-02-28T11:30:37;5.80;99.90
52879;DHT22;38747;53.140;6.498;2023-02-28T11:33:23;5.80;99.90
52879;DHT22;38747;53.140;6.498;2023-02-28T11:35:53;5.80;99.90
52879;DHT22;38747;53.140;6.498;2023-02-28T11:38:21;5.90;99.90
52879;DHT22;38747;53.140;6.498;2023-02-28T11:43:30;6.00;99.90
52879;DHT22;38747;53.140;6.498;2023-02-28T11:46:16;6.00;99.90
52879;DHT22;38747;53.140;6.498;2023-02-28T11:51:28;6.20;99.90
52879;DHT22;38747;53.140;6.498;2023-02-28T11:56:57;6.40;99.90
52879;DHT22;38747;53.140;6.498;2023-02-28T11:59:44;6.50;99.90
52879;DHT22;38747;53.140;6.498;2023-02-28T12:05:43;6.60;99.90
52879;DHT22;38747;53.140;6.498;2023-02-28T12:08:31;6.70;99.90
52879;DHT22;38747;53.140;6.498;2023-02-28T12:19:15;6.80;99.90
52879;DHT22;38747;53.140;6.498;2023-02-28T12:27:10;6.50;99.90
52879;DHT22;38747;53.140;6.498;2023-02-28T12:32:37;6.50;99.90
52879;DHT22;38747;53.140;6.498;2023-02-28T12:35:14;6.50;99.90
52879;DHT22;38747;53.140;6.498;2023-02-28T12:38:06;6.60;99.90
52879;DHT22;38747;53.140;6.498;2023-02-28T12:41:03;6.80;99.90
52879;DHT22;38747;53.140;6.498;2023-02-28T12:43:35;6.90;99.90
52879;DHT22;38747;53.140;6.498;2023-02-28T12:46:09;7.00;99.90
52879;DHT22;38747;53.140;6.498;2023-02-28T12:48:47;7.20;99.90
52879;DHT22;38747;53.140;6.498;2023-02-28T12:51:15;7.40;99.90
52879;DHT22;38747;53.140;6.498;2023-02-28T12:54:03;7.50;99.90
52879;DHT22;38747;53.140;6.498;2023-02-28T12:56:43;7.60;99.90
52879;DHT22;38747;53.140;6.498;2023-02-28T12:59:26;7.70;99.90
52879;DHT22;38747;53.140;6.498;2023-02-28T13:09:54;7.80;99.90
52879;DHT22;38747;53.140;6.498;2023-02-28T13:12:20;7.70;99.90
52879;DHT22;38747;53.140;6.498;2023-02-28T13:14:48;7.60;99.90
52879;DHT22;38747;53.140;6.498;2023-02-28T13:17:23;7.60;99.90
52879;DHT22;38747;53.140;6.498;2023-02-28T13:24:56;7.50;99.90
52879;DHT22;38747;53.140;6.498;2023-02-28T13:27:39;7.50;99.90
52879;DHT22;38747;53.140;6.498;2023-02-28T13:33:32;7.40;99.90
52879;DHT22;38747;53.140;6.498;2023-02-28T13:39:00;7.30;99.90
52879;DHT22;38747;53.140;6.498;2023-02-28T13:44:11;7.20;99.90
52879;DHT22;38747;53.140;6.498;2023-02-28T14:00:27;6.50;99.90
52879;DHT22;38747;53.140;6.498;2023-02-28T14:05:46;6.40;99.90
52879;DHT22;38747;53.140;6.498;2023-02-28T14:08:16;6.50;99.90
52879;DHT22;38747;53.140;6.498;2023-02-28T14:10:51;6.60;99.90
52879;DHT22;38747;53.140;6.498;2023-02-28T14:13:43;6.80;99.90
52879;DHT22;38747;53.140;6.498;2023-02-28T14:16:12;6.80;99.90
52879;DHT22;38747;53.140;6.498;2023-02-28T14:18:49;6.90;99.90
52879;DHT22;38747;53.140;6.498;2023-02-28T14:24:15;7.00;99.90
52879;DHT22;38747;53.140;6.498;2023-02-28T14:27:05;7.00;99.90
52879;DHT22;38747;53.140;6.498;2023-02-28T14:36:20;6.90;99.90
52879;DHT22;38747;53.140;6.498;2023-02-28T14:38:51;6.90;99.90
52879;DHT22;38747;53.140;6.498;2023-02-28T14:41:22;6.90;99.90
52879;DHT22;38747;53.140;6.498;2023-02-28T14:43:51;7.00;99.90
52879;DHT22;38747;53.140;6.498;2023-02-28T14:46:17;7.10;99.90
52879;DHT22;38747;53.140;6.498;2023-02-28T14:48:48;7.10;99.90
52879;DHT22;38747;53.140;6.498;2023-02-28T14:51:20;7.00;99.90
52879;DHT22;38747;53.140;6.498;2023-02-28T14:53:51;6.90;99.90
52879;DHT22;38747;53.140;6.498;2023-02-28T14:56:33;6.80;99.90
52879;DHT22;38747;53.140;6.498;2023-02-28T14:58:59;6.60;99.90
52879;DHT22;38747;53.140;6.498;2023-02-28T15:01:25;6.50;99.90
52879;DHT22;38747;53.140;6.498;2023-02-28T15:04:04;6.50;99.90
52879;DHT22;38747;53.140;6.498;2023-02-28T15:06:31;6.40;99.90
52879;DHT22;38747;53.140;6.498;2023-02-28T15:09:14;6.30;99.90
52879;DHT22;38747;53.140;6.498;2023-02-28T15:11:41;6.20;99.90
52879;DHT22;38747;53.140;6.498;2023-02-28T15:14:12;6.20;99.90
52879;DHT22;38747;53.140;6.498;2023-02-28T15:16:41;6.20;99.90
52879;DHT22;38747;53.140;6.498;2023-02-28T15:19:34;6.30;99.90
52879;DHT22;38747;53.140;6.498;2023-02-28T15:22:12;6.30;99.90
52879;DHT22;38747;53.140;6.498;2023-02-28T15:24:50;6.40;99.90
52879;DHT22;38747;53.140;6.498;2023-02-28T15:27:31;6.50;99.90
52879;DHT22;38747;53.140;6.498;2023-02-28T15:30:28;6.50;99.90
52879;DHT22;38747;53.140;6.498;2023-02-28T15:33:17;6.60;99.90
52879;DHT22;38747;53.140;6.498;2023-02-28T15:35:44;6.70;99.90
52879;DHT22;38747;53.140;6.498;2023-02-28T15:38:14;6.70;99.90
52879;DHT22;38747;53.140;6.498;2023-02-28T15:40:55;6.60;99.90
52879;DHT22;38747;53.140;6.498;2023-02-28T15:43:30;6.60;99.90
52879;DHT22;38747;53.140;6.498;2023-02-28T15:46:05;6.50;99.90
52879;DHT22;38747;53.140;6.498;2023-02-28T15:48:42;6.50;99.90
52879;DHT22;38747;53.140;6.498;2023-02-28T15:53:48;6.30;99.90
52879;DHT22;38747;53.140;6.498;2023-02-28T15:59:21;6.20;99.90
52879;DHT22;38747;53.140;6.498;2023-02-28T16:02:15;6.20;99.90
52879;DHT22;38747;53.140;6.498;2023-02-28T16:07:28;6.10;99.90
52879;DHT22;38747;53.140;6.498;2023-02-28T16:09:54;6.00;99.90
52879;DHT22;38747;53.140;6.498;2023-02-28T16:12:22;6.00;99.90
52879;DHT22;38747;53.140;6.498;2023-02-28T16:14:51;5.90;99.90
52879;DHT22;38747;53.140;6.498;2023-02-28T16:17:26;5.90;99.90
52879;DHT22;38747;53.140;6.498;2023-02-28T16:19:53;5.90;99.90
52879;DHT22;38747;53.140;6.498;2023-02-28T16:22:18;5.90;99.90
52879;DHT22;38747;53.140;6.498;2023-02-28T16:24:44;5.80;99.90
52879;DHT22;38747;53.140;6.498;2023-02-28T16:27:29;5.70;99.90
52879;DHT22;38747;53.140;6.498;2023-02-28T16:29:55;5.70;99.90
52879;DHT22;38747;53.140;6.498;2023-02-28T16:32:21;5.60;99.90
52879;DHT22;38747;53.140;6.498;2023-02-28T16:34:47;5.50;99.90
52879;DHT22;38747;53.140;6.498;2023-02-28T16:37:17;5.50;99.90
52879;DHT22;38747;53.140;6.498;2023-02-28T16:39:44;5.40;99.90
52879;DHT22;38747;53.140;6.498;2023-02-28T16:42:23;5.40;99.90
52879;DHT22;38747;53.140;6.498;2023-02-28T16:44:50;5.30;99.90
52879;DHT22;38747;53.140;6.498;2023-02-28T16:47:17;5.20;99.90
52879;DHT22;38747;53.140;6.498;2023-02-28T16:49:43;5.20;99.90
52879;DHT22;38747;53.140;6.498;2023-02-28T16:52:10;5.10;99.90
52879;DHT22;38747;53.140;6.498;2023-02-28T16:54:38;5.10;99.90
52879;DHT22;38747;53.140;6.498;2023-02-28T16:57:05;5.00;99.90
52879;DHT22;38747;53.140;6.498;2023-02-28T16:59:32;5.00;99.90
52879;DHT22;38747;53.140;6.498;2023-02-28T17:01:58;4.90;99.90
52879;DHT22;38747;53.140;6.498;2023-02-28T17:04:27;4.80;99.90
52879;DHT22;38747;53.140;6.498;2023-02-28T17:06:53;4.80;99.90
52879;DHT22;38747;53.140;6.498;2023-02-28T17:09:21;4.70;99.90
52879;DHT22;38747;53.140;6.498;2023-02-28T17:11:47;4.60;99.90
52879;DHT22;38747;53.140;6.498;2023-02-28T17:14:14;4.50;99.90
52879;DHT22;38747;53.140;6.498;2023-02-28T17:16:40;4.50;99.90
52879;DHT22;38747;53.140;6.498;2023-02-28T17:19:09;4.40;99.90
52879;DHT22;38747;53.140;6.498;2023-02-28T17:21:36;4.40;99.90
52879;DHT22;38747;53.140;6.498;2023-02-28T17:24:02;4.30;99.90
52879;DHT22;38747;53.140;6.498;2023-02-28T17:26:28;4.20;99.90
52879;DHT22;38747;53.140;6.498;2023-02-28T17:28:55;4.10;99.90
52879;DHT22;38747;53.140;6.498;2023-02-28T17:31:22;4.00;99.90
52879;DHT22;38747;53.140;6.498;2023-02-28T17:33:47;3.90;99.90
52879;DHT22;38747;53.140;6.498;2023-02-28T17:36:15;3.80;99.90
52879;DHT22;38747;53.140;6.498;2023-02-28T17:38:41;3.70;99.90
52879;DHT22;38747;53.140;6.498;2023-02-28T17:41:10;3.60;99.90
52879;DHT22;38747;53.140;6.498;2023-02-28T17:43:35;3.50;99.90
52879;DHT22;38747;53.140;6.498;2023-02-28T17:46:01;3.40;99.90
52879;DHT22;38747;53.140;6.498;2023-02-28T17:48:27;3.40;99.90
52879;DHT22;38747;53.140;6.498;2023-02-28T17:50:53;3.40;99.90
52879;DHT22;38747;53.140;6.498;2023-02-28T17:53:19;3.40;99.90
52879;DHT22;38747;53.140;6.498;2023-02-28T17:55:48;3.40;99.90
52879;DHT22;38747;53.140;6.498;2023-02-28T17:58:14;3.40;99.90
52879;DHT22;38747;53.140;6.498;2023-02-28T18:00:40;3.30;99.90
52879;DHT22;38747;53.140;6.498;2023-02-28T18:03:06;3.30;99.90
52879;DHT22;38747;53.140;6.498;2023-02-28T18:05:32;3.20;99.90
52879;DHT22;38747;53.140;6.498;2023-02-28T18:07:58;3.10;99.90
52879;DHT22;38747;53.140;6.498;2023-02-28T18:10:23;3.10;99.90
52879;DHT22;38747;53.140;6.498;2023-02-28T18:12:51;3.00;99.90